Nautilus — OUYX2 — position and weather

sailwx.info

Track history (hours):
 
Tides and Currents Weather Stations Pressure Air Temp Water Temp Dewpoint Dewpoint Depression Visibility Wind Speed Wind Dir Waves Ship Positions

Nautilus

Last reported at 2014-Nov-23 00:33 UTC. Time now 2014-Nov-23 01:08 UTC.
Position N 54°25' E 012°11'.

Length 120 m; draft 5 m.

Type: Ship. MMSI: 219425000.

Date/timePositionNaut miles runAvg speedWind from/ knotsBaromVisibWave heightAir tempDewpointWater temp
2014-Nov-23 00:33N 54°25' E 012°11'1212.0
2014-Nov-22 23:33N 54°17' E 011°57'4 4.3
2014-Nov-22 22:33N 54°12' E 011°57'0 0.0
2014-Nov-22 21:27N 54°12' E 011°57'0 0.0
2014-Nov-22 20:33N 54°12' E 011°57'1 0.7
2014-Nov-22 19:34N 54°13' E 011°56'1111.1
2014-Nov-22 18:34N 54°23' E 011°48'  
2014-Nov-18 01:23N 57°04' E 011°40'1011.7
2014-Nov-18 00:31N 57°13' E 011°33'1111.3
2014-Nov-17 23:33N 57°23' E 011°26'1110.8
2014-Nov-17 22:33N 57°32' E 011°14'1111.1
2014-Nov-17 21:33N 57°40' E 010°60'1110.8
2014-Nov-17 20:34N 57°47' E 010°45'9 9.1
2014-Nov-17 19:33N 57°49' E 010°28'64 9.1
2014-Nov-17 12:34N 57°58' E 008°29'8 8.1
2014-Nov-17 11:33N 58°01' E 008°15'5 0.3
2014-Nov-16 19:29N 58°03' E 008°05'52 5.7
2014-Nov-16 10:27N 58°00' E 006°28'7 7.5
2014-Nov-16 09:33N 58°04' E 006°18'8 7.7
2014-Nov-16 08:33N 58°09' E 006°07'8 7.9
2014-Nov-16 07:33N 58°14' E 005°55'8 8.3
2014-Nov-16 06:33N 58°20' E 005°43'8 7.9
2014-Nov-16 05:33N 58°25' E 005°32'7 7.0
2014-Nov-16 04:32N 58°31' E 005°25'14 7.1
2014-Nov-16 02:33N 58°43' E 005°13'7 6.8
2014-Nov-16 01:33N 58°50' E 005°07'1110.2
2014-Nov-16 00:28N 58°60' E 004°57'9 9.8
2014-Nov-15 23:31N 59°08' E 004°49'  
2014-Nov-13 11:06N 62°02' W 005°32'4 7.7
2014-Nov-13 10:33N 62°02' W 005°40'7 7.4
2014-Nov-13 09:33N 62°02' W 005°56'8 7.6
2014-Nov-13 08:33N 62°04' W 006°12'7 7.4
2014-Nov-13 07:34N 62°08' W 006°25'8 6.7
2014-Nov-13 06:21N 62°13' W 006°39'2 0.4
2014-Nov-13 01:33N 62°12' W 006°37'9 8.9
2014-Nov-13 00:33N 62°03' W 006°40'  
Track history (hours):
 
Tides and Currents Weather Stations Pressure Air Temp Water Temp Dewpoint Dewpoint Depression Visibility Wind Speed Wind Dir Waves Ship Positions

Nautilus

Last reported at 2014-Nov-23 00:33 UTC. Time now 2014-Nov-23 01:08 UTC.
Position N 54°25' E 012°11'.

Length 120 m; draft 5 m.

Type: Ship. MMSI: 219425000.

Date/timePositionNaut miles runAvg speedWind from/ knotsBaromVisibWave heightAir tempDewpointWater temp
2014-Nov-23 00:33N 54°25' E 012°11'1212.0
2014-Nov-22 23:33N 54°17' E 011°57'4 4.3
2014-Nov-22 22:33N 54°12' E 011°57'0 0.0
2014-Nov-22 21:27N 54°12' E 011°57'0 0.0
2014-Nov-22 20:33N 54°12' E 011°57'1 0.7
2014-Nov-22 19:34N 54°13' E 011°56'1111.1
2014-Nov-22 18:34N 54°23' E 011°48'  
2014-Nov-18 01:23N 57°04' E 011°40'1011.7
2014-Nov-18 00:31N 57°13' E 011°33'1111.3
2014-Nov-17 23:33N 57°23' E 011°26'1110.8
2014-Nov-17 22:33N 57°32' E 011°14'1111.1
2014-Nov-17 21:33N 57°40' E 010°60'1110.8
2014-Nov-17 20:34N 57°47' E 010°45'9 9.1
2014-Nov-17 19:33N 57°49' E 010°28'64 9.1
2014-Nov-17 12:34N 57°58' E 008°29'8 8.1
2014-Nov-17 11:33N 58°01' E 008°15'5 0.3
2014-Nov-16 19:29N 58°03' E 008°05'52 5.7
2014-Nov-16 10:27N 58°00' E 006°28'7 7.5
2014-Nov-16 09:33N 58°04' E 006°18'8 7.7
2014-Nov-16 08:33N 58°09' E 006°07'8 7.9
2014-Nov-16 07:33N 58°14' E 005°55'8 8.3
2014-Nov-16 06:33N 58°20' E 005°43'8 7.9
2014-Nov-16 05:33N 58°25' E 005°32'7 7.0
2014-Nov-16 04:32N 58°31' E 005°25'14 7.1
2014-Nov-16 02:33N 58°43' E 005°13'7 6.8
2014-Nov-16 01:33N 58°50' E 005°07'1110.2
2014-Nov-16 00:28N 58°60' E 004°57'9 9.8
2014-Nov-15 23:31N 59°08' E 004°49'  
2014-Nov-13 11:06N 62°02' W 005°32'4 7.7
2014-Nov-13 10:33N 62°02' W 005°40'7 7.4
2014-Nov-13 09:33N 62°02' W 005°56'8 7.6
2014-Nov-13 08:33N 62°04' W 006°12'7 7.4
2014-Nov-13 07:34N 62°08' W 006°25'8 6.7
2014-Nov-13 06:21N 62°13' W 006°39'2 0.4
2014-Nov-13 01:33N 62°12' W 006°37'9 8.9
2014-Nov-13 00:33N 62°03' W 006°40'  

Dump ship's entire track history